sensor_id;sensor_type;location;lat;lon;timestamp;temperature;humidity
16846;DHT22;8539;53.188;8.696;2023-05-16T00:00:31;10.40;99.90
16846;DHT22;8539;53.188;8.696;2023-05-16T00:03:01;10.30;99.90
16846;DHT22;8539;53.188;8.696;2023-05-16T00:05:28;10.30;99.90
16846;DHT22;8539;53.188;8.696;2023-05-16T00:07:54;10.30;99.90
16846;DHT22;8539;53.188;8.696;2023-05-16T00:10:20;10.30;99.90
16846;DHT22;8539;53.188;8.696;2023-05-16T00:12:47;10.20;99.90
16846;DHT22;8539;53.188;8.696;2023-05-16T00:15:17;10.10;99.90
16846;DHT22;8539;53.188;8.696;2023-05-16T00:17:45;10.10;99.90
16846;DHT22;8539;53.188;8.696;2023-05-16T00:20:12;10.10;99.90
16846;DHT22;8539;53.188;8.696;2023-05-16T00:22:42;10.10;99.90
16846;DHT22;8539;53.188;8.696;2023-05-16T00:25:08;10.00;99.90
16846;DHT22;8539;53.188;8.696;2023-05-16T00:27:35;10.00;99.90
16846;DHT22;8539;53.188;8.696;2023-05-16T00:30:02;10.00;99.90
16846;DHT22;8539;53.188;8.696;2023-05-16T00:32:29;10.10;99.90
16846;DHT22;8539;53.188;8.696;2023-05-16T00:34:55;10.00;99.90
16846;DHT22;8539;53.188;8.696;2023-05-16T00:37:21;10.00;99.90
16846;DHT22;8539;53.188;8.696;2023-05-16T00:39:47;10.00;99.90
16846;DHT22;8539;53.188;8.696;2023-05-16T00:42:13;10.00;99.90
16846;DHT22;8539;53.188;8.696;2023-05-16T00:44:39;10.00;99.90
16846;DHT22;8539;53.188;8.696;2023-05-16T00:47:05;10.00;99.90
16846;DHT22;8539;53.188;8.696;2023-05-16T00:49:31;10.00;99.90
16846;DHT22;8539;53.188;8.696;2023-05-16T00:51:57;10.00;99.90
16846;DHT22;8539;53.188;8.696;2023-05-16T00:54:25;10.00;99.90
16846;DHT22;8539;53.188;8.696;2023-05-16T00:56:54;9.90;99.90
16846;DHT22;8539;53.188;8.696;2023-05-16T00:59:22;9.90;99.90
16846;DHT22;8539;53.188;8.696;2023-05-16T01:01:50;9.90;99.90
16846;DHT22;8539;53.188;8.696;2023-05-16T01:04:17;9.90;99.90
16846;DHT22;8539;53.188;8.696;2023-05-16T01:06:44;9.90;99.90
16846;DHT22;8539;53.188;8.696;2023-05-16T01:09:11;10.00;99.90
16846;DHT22;8539;53.188;8.696;2023-05-16T01:15:00;9.90;99.90
16846;DHT22;8539;53.188;8.696;2023-05-16T01:28:47;9.90;99.90
16846;DHT22;8539;53.188;8.696;2023-05-16T01:31:13;9.90;99.90
16846;DHT22;8539;53.188;8.696;2023-05-16T01:33:39;9.90;99.90
16846;DHT22;8539;53.188;8.696;2023-05-16T01:36:23;9.90;99.90
16846;DHT22;8539;53.188;8.696;2023-05-16T01:38:58;9.90;99.90
16846;DHT22;8539;53.188;8.696;2023-05-16T01:41:54;9.90;99.90
16846;DHT22;8539;53.188;8.696;2023-05-16T01:44:32;9.90;99.90
16846;DHT22;8539;53.188;8.696;2023-05-16T01:47:02;9.90;99.90
16846;DHT22;8539;53.188;8.696;2023-05-16T01:49:34;9.90;99.90
16846;DHT22;8539;53.188;8.696;2023-05-16T01:52:07;9.90;99.90
16846;DHT22;8539;53.188;8.696;2023-05-16T01:54:37;9.90;99.90
16846;DHT22;8539;53.188;8.696;2023-05-16T01:57:03;9.90;99.90
16846;DHT22;8539;53.188;8.696;2023-05-16T01:59:31;9.80;99.90
16846;DHT22;8539;53.188;8.696;2023-05-16T02:01:58;9.80;99.90
16846;DHT22;8539;53.188;8.696;2023-05-16T02:04:24;9.90;99.90
16846;DHT22;8539;53.188;8.696;2023-05-16T02:06:50;9.80;99.90
16846;DHT22;8539;53.188;8.696;2023-05-16T02:09:16;9.80;99.90
16846;DHT22;8539;53.188;8.696;2023-05-16T02:11:42;9.80;99.90
16846;DHT22;8539;53.188;8.696;2023-05-16T02:14:08;9.80;99.90
16846;DHT22;8539;53.188;8.696;2023-05-16T02:16:35;9.80;99.90
16846;DHT22;8539;53.188;8.696;2023-05-16T02:19:01;9.80;99.90
16846;DHT22;8539;53.188;8.696;2023-05-16T02:21:27;9.80;99.90
16846;DHT22;8539;53.188;8.696;2023-05-16T02:23:54;9.80;99.90
16846;DHT22;8539;53.188;8.696;2023-05-16T02:26:20;9.80;99.90
16846;DHT22;8539;53.188;8.696;2023-05-16T02:28:46;9.70;99.90
16846;DHT22;8539;53.188;8.696;2023-05-16T02:31:31;9.70;99.90
16846;DHT22;8539;53.188;8.696;2023-05-16T02:33:58;9.70;99.90
16846;DHT22;8539;53.188;8.696;2023-05-16T02:36:24;9.70;99.90
16846;DHT22;8539;53.188;8.696;2023-05-16T02:38:51;9.60;99.90
16846;DHT22;8539;53.188;8.696;2023-05-16T02:41:18;9.60;99.90
16846;DHT22;8539;53.188;8.696;2023-05-16T02:43:44;9.60;99.90
16846;DHT22;8539;53.188;8.696;2023-05-16T02:46:21;9.50;99.90
16846;DHT22;8539;53.188;8.696;2023-05-16T02:48:48;9.50;99.90
16846;DHT22;8539;53.188;8.696;2023-05-16T02:51:15;9.50;99.90
16846;DHT22;8539;53.188;8.696;2023-05-16T02:53:41;9.40;99.90
16846;DHT22;8539;53.188;8.696;2023-05-16T02:56:07;9.40;99.90
16846;DHT22;8539;53.188;8.696;2023-05-16T02:58:35;9.40;99.90
16846;DHT22;8539;53.188;8.696;2023-05-16T03:01:01;9.30;99.90
16846;DHT22;8539;53.188;8.696;2023-05-16T03:03:27;9.30;99.90
16846;DHT22;8539;53.188;8.696;2023-05-16T03:05:54;9.30;99.90
16846;DHT22;8539;53.188;8.696;2023-05-16T03:08:20;9.20;99.90
16846;DHT22;8539;53.188;8.696;2023-05-16T03:10:46;9.20;99.90
16846;DHT22;8539;53.188;8.696;2023-05-16T03:13:12;9.10;99.90
16846;DHT22;8539;53.188;8.696;2023-05-16T03:15:41;9.10;99.90
16846;DHT22;8539;53.188;8.696;2023-05-16T03:18:07;9.10;99.90
16846;DHT22;8539;53.188;8.696;2023-05-16T03:20:33;9.00;99.90
16846;DHT22;8539;53.188;8.696;2023-05-16T03:22:59;9.00;99.90
16846;DHT22;8539;53.188;8.696;2023-05-16T03:25:25;9.00;99.90
16846;DHT22;8539;53.188;8.696;2023-05-16T03:27:51;8.90;99.90
16846;DHT22;8539;53.188;8.696;2023-05-16T03:30:18;8.90;99.90
16846;DHT22;8539;53.188;8.696;2023-05-16T03:32:45;8.90;99.90
16846;DHT22;8539;53.188;8.696;2023-05-16T03:35:11;8.80;99.90
16846;DHT22;8539;53.188;8.696;2023-05-16T03:37:37;8.80;99.90
16846;DHT22;8539;53.188;8.696;2023-05-16T03:40:04;8.80;99.90
16846;DHT22;8539;53.188;8.696;2023-05-16T03:42:31;8.80;99.90
16846;DHT22;8539;53.188;8.696;2023-05-16T03:44:57;8.80;99.90
16846;DHT22;8539;53.188;8.696;2023-05-16T03:47:23;8.70;99.90
16846;DHT22;8539;53.188;8.696;2023-05-16T03:49:49;8.80;99.90
16846;DHT22;8539;53.188;8.696;2023-05-16T03:52:15;8.80;99.90
16846;DHT22;8539;53.188;8.696;2023-05-16T03:54:41;8.70;99.90
16846;DHT22;8539;53.188;8.696;2023-05-16T03:57:07;8.70;99.90
16846;DHT22;8539;53.188;8.696;2023-05-16T03:59:33;8.70;99.90
16846;DHT22;8539;53.188;8.696;2023-05-16T04:02:00;8.60;99.90
16846;DHT22;8539;53.188;8.696;2023-05-16T04:04:26;8.60;99.90
16846;DHT22;8539;53.188;8.696;2023-05-16T04:06:52;8.50;99.90
16846;DHT22;8539;53.188;8.696;2023-05-16T04:09:18;8.50;99.90
16846;DHT22;8539;53.188;8.696;2023-05-16T04:11:44;8.40;99.90
16846;DHT22;8539;53.188;8.696;2023-05-16T04:14:10;8.40;99.90
16846;DHT22;8539;53.188;8.696;2023-05-16T04:16:36;8.40;99.90
16846;DHT22;8539;53.188;8.696;2023-05-16T04:19:02;8.30;99.90
16846;DHT22;8539;53.188;8.696;2023-05-16T04:21:28;8.30;99.90
16846;DHT22;8539;53.188;8.696;2023-05-16T04:23:54;8.30;99.90
16846;DHT22;8539;53.188;8.696;2023-05-16T04:26:22;8.30;99.90
16846;DHT22;8539;53.188;8.696;2023-05-16T04:28:49;8.30;99.90
16846;DHT22;8539;53.188;8.696;2023-05-16T04:31:16;8.30;99.90
16846;DHT22;8539;53.188;8.696;2023-05-16T04:33:42;8.30;99.90
16846;DHT22;8539;53.188;8.696;2023-05-16T04:36:08;8.30;99.90
16846;DHT22;8539;53.188;8.696;2023-05-16T04:38:34;8.20;99.90
16846;DHT22;8539;53.188;8.696;2023-05-16T04:41:00;8.20;99.90
16846;DHT22;8539;53.188;8.696;2023-05-16T04:43:27;8.30;99.90
16846;DHT22;8539;53.188;8.696;2023-05-16T04:45:54;8.20;99.90
16846;DHT22;8539;53.188;8.696;2023-05-16T04:48:20;8.20;99.90
16846;DHT22;8539;53.188;8.696;2023-05-16T04:51:00;8.20;99.90
16846;DHT22;8539;53.188;8.696;2023-05-16T04:53:26;8.20;99.90
16846;DHT22;8539;53.188;8.696;2023-05-16T04:55:52;8.20;99.90
16846;DHT22;8539;53.188;8.696;2023-05-16T04:58:18;8.20;99.90
16846;DHT22;8539;53.188;8.696;2023-05-16T05:00:44;8.30;99.90
16846;DHT22;8539;53.188;8.696;2023-05-16T05:03:10;8.30;99.90
16846;DHT22;8539;53.188;8.696;2023-05-16T05:05:36;8.40;99.90
16846;DHT22;8539;53.188;8.696;2023-05-16T05:08:03;8.40;99.90
16846;DHT22;8539;53.188;8.696;2023-05-16T05:10:29;8.40;99.90
16846;DHT22;8539;53.188;8.696;2023-05-16T05:12:56;8.40;99.90
16846;DHT22;8539;53.188;8.696;2023-05-16T05:15:22;8.50;99.90
16846;DHT22;8539;53.188;8.696;2023-05-16T05:17:48;8.50;99.90
16846;DHT22;8539;53.188;8.696;2023-05-16T05:20:17;8.60;99.90
16846;DHT22;8539;53.188;8.696;2023-05-16T05:22:43;8.70;99.90
16846;DHT22;8539;53.188;8.696;2023-05-16T05:25:10;8.90;99.90
16846;DHT22;8539;53.188;8.696;2023-05-16T05:27:37;9.00;99.90
16846;DHT22;8539;53.188;8.696;2023-05-16T05:30:03;9.30;99.90
16846;DHT22;8539;53.188;8.696;2023-05-16T05:32:29;9.70;99.90
16846;DHT22;8539;53.188;8.696;2023-05-16T05:34:55;9.90;99.90
16846;DHT22;8539;53.188;8.696;2023-05-16T05:37:22;10.00;99.90
16846;DHT22;8539;53.188;8.696;2023-05-16T05:39:48;10.20;99.90
16846;DHT22;8539;53.188;8.696;2023-05-16T05:42:14;10.10;99.90
16846;DHT22;8539;53.188;8.696;2023-05-16T05:44:40;10.00;99.90
16846;DHT22;8539;53.188;8.696;2023-05-16T05:47:06;10.20;99.90
16846;DHT22;8539;53.188;8.696;2023-05-16T05:49:33;10.90;99.90
16846;DHT22;8539;53.188;8.696;2023-05-16T05:51:59;11.30;99.90
16846;DHT22;8539;53.188;8.696;2023-05-16T05:54:25;11.70;99.90
16846;DHT22;8539;53.188;8.696;2023-05-16T05:56:51;12.20;99.90
16846;DHT22;8539;53.188;8.696;2023-05-16T05:59:17;12.70;99.90
16846;DHT22;8539;53.188;8.696;2023-05-16T06:01:43;12.90;99.90
16846;DHT22;8539;53.188;8.696;2023-05-16T06:04:09;13.10;99.90
16846;DHT22;8539;53.188;8.696;2023-05-16T06:06:36;13.10;99.90
16846;DHT22;8539;53.188;8.696;2023-05-16T06:09:02;12.80;99.90
16846;DHT22;8539;53.188;8.696;2023-05-16T06:11:28;12.30;99.90
16846;DHT22;8539;53.188;8.696;2023-05-16T06:13:55;12.10;99.90
16846;DHT22;8539;53.188;8.696;2023-05-16T06:16:27;11.90;99.90
16846;DHT22;8539;53.188;8.696;2023-05-16T06:18:53;11.90;99.90
16846;DHT22;8539;53.188;8.696;2023-05-16T06:21:19;12.30;99.90
16846;DHT22;8539;53.188;8.696;2023-05-16T06:23:45;12.90;99.90
16846;DHT22;8539;53.188;8.696;2023-05-16T06:26:11;13.40;99.90
16846;DHT22;8539;53.188;8.696;2023-05-16T06:28:37;14.00;99.90
16846;DHT22;8539;53.188;8.696;2023-05-16T06:31:04;14.40;99.90
16846;DHT22;8539;53.188;8.696;2023-05-16T06:33:30;14.30;99.90
16846;DHT22;8539;53.188;8.696;2023-05-16T06:35:56;13.80;99.90
16846;DHT22;8539;53.188;8.696;2023-05-16T06:38:22;13.50;99.90
16846;DHT22;8539;53.188;8.696;2023-05-16T06:40:48;13.30;99.90
16846;DHT22;8539;53.188;8.696;2023-05-16T06:43:14;13.50;99.90
16846;DHT22;8539;53.188;8.696;2023-05-16T06:45:40;13.80;99.90
16846;DHT22;8539;53.188;8.696;2023-05-16T06:48:07;13.70;99.90
16846;DHT22;8539;53.188;8.696;2023-05-16T06:50:33;13.20;99.90
16846;DHT22;8539;53.188;8.696;2023-05-16T06:53:02;12.90;99.90
16846;DHT22;8539;53.188;8.696;2023-05-16T06:55:29;12.70;99.90
16846;DHT22;8539;53.188;8.696;2023-05-16T06:57:55;12.50;99.90
16846;DHT22;8539;53.188;8.696;2023-05-16T07:00:22;12.40;99.90
16846;DHT22;8539;53.188;8.696;2023-05-16T07:02:48;12.40;99.90
16846;DHT22;8539;53.188;8.696;2023-05-16T07:05:15;12.50;99.90
16846;DHT22;8539;53.188;8.696;2023-05-16T07:07:41;12.50;99.90
16846;DHT22;8539;53.188;8.696;2023-05-16T07:10:10;12.60;99.90
16846;DHT22;8539;53.188;8.696;2023-05-16T07:12:45;12.50;99.90
16846;DHT22;8539;53.188;8.696;2023-05-16T07:15:12;12.50;99.90
16846;DHT22;8539;53.188;8.696;2023-05-16T07:17:38;12.70;99.90
16846;DHT22;8539;53.188;8.696;2023-05-16T07:20:05;12.80;99.90
16846;DHT22;8539;53.188;8.696;2023-05-16T07:22:31;12.70;99.90
16846;DHT22;8539;53.188;8.696;2023-05-16T07:24:57;12.60;99.90
16846;DHT22;8539;53.188;8.696;2023-05-16T07:27:26;12.40;99.90
16846;DHT22;8539;53.188;8.696;2023-05-16T07:29:53;12.10;99.90
16846;DHT22;8539;53.188;8.696;2023-05-16T07:32:19;12.00;99.90
16846;DHT22;8539;53.188;8.696;2023-05-16T07:34:45;12.00;99.90
16846;DHT22;8539;53.188;8.696;2023-05-16T07:37:11;11.90;99.90
16846;DHT22;8539;53.188;8.696;2023-05-16T07:39:38;11.80;99.90
16846;DHT22;8539;53.188;8.696;2023-05-16T07:42:08;11.70;99.90
16846;DHT22;8539;53.188;8.696;2023-05-16T07:44:37;11.70;99.90
16846;DHT22;8539;53.188;8.696;2023-05-16T07:47:03;11.70;99.90
16846;DHT22;8539;53.188;8.696;2023-05-16T07:49:40;11.70;99.90
16846;DHT22;8539;53.188;8.696;2023-05-16T07:52:07;11.70;99.90
16846;DHT22;8539;53.188;8.696;2023-05-16T07:54:34;11.70;99.90
16846;DHT22;8539;53.188;8.696;2023-05-16T07:57:01;11.80;99.90
16846;DHT22;8539;53.188;8.696;2023-05-16T07:59:30;12.00;99.90
16846;DHT22;8539;53.188;8.696;2023-05-16T08:02:03;12.20;99.90
16846;DHT22;8539;53.188;8.696;2023-05-16T08:04:29;12.40;99.90
16846;DHT22;8539;53.188;8.696;2023-05-16T08:06:55;12.40;99.90
16846;DHT22;8539;53.188;8.696;2023-05-16T08:09:21;12.40;99.90
16846;DHT22;8539;53.188;8.696;2023-05-16T08:11:50;12.40;99.90
16846;DHT22;8539;53.188;8.696;2023-05-16T08:14:17;12.20;99.90
16846;DHT22;8539;53.188;8.696;2023-05-16T08:16:43;12.10;99.90
16846;DHT22;8539;53.188;8.696;2023-05-16T08:19:09;12.00;99.90
16846;DHT22;8539;53.188;8.696;2023-05-16T08:21:35;12.20;99.90
16846;DHT22;8539;53.188;8.696;2023-05-16T08:24:03;12.40;99.90
16846;DHT22;8539;53.188;8.696;2023-05-16T08:26:31;12.70;99.90
16846;DHT22;8539;53.188;8.696;2023-05-16T08:28:57;12.90;99.90
16846;DHT22;8539;53.188;8.696;2023-05-16T08:31:23;13.10;99.90
16846;DHT22;8539;53.188;8.696;2023-05-16T08:33:49;13.00;99.90
16846;DHT22;8539;53.188;8.696;2023-05-16T08:36:15;12.90;99.90
16846;DHT22;8539;53.188;8.696;2023-05-16T08:38:44;12.80;99.90
16846;DHT22;8539;53.188;8.696;2023-05-16T08:41:11;12.80;99.90
16846;DHT22;8539;53.188;8.696;2023-05-16T08:43:37;13.00;99.90
16846;DHT22;8539;53.188;8.696;2023-05-16T08:46:06;13.30;99.90
16846;DHT22;8539;53.188;8.696;2023-05-16T08:48:32;13.50;99.90
16846;DHT22;8539;53.188;8.696;2023-05-16T08:51:00;13.70;99.90
16846;DHT22;8539;53.188;8.696;2023-05-16T08:53:31;13.90;99.90
16846;DHT22;8539;53.188;8.696;2023-05-16T08:55:59;14.10;99.90
16846;DHT22;8539;53.188;8.696;2023-05-16T08:58:26;14.20;99.90
16846;DHT22;8539;53.188;8.696;2023-05-16T09:00:53;14.30;99.90
16846;DHT22;8539;53.188;8.696;2023-05-16T09:03:19;14.40;99.90
16846;DHT22;8539;53.188;8.696;2023-05-16T09:05:46;14.40;99.90
16846;DHT22;8539;53.188;8.696;2023-05-16T09:08:12;14.40;99.90
16846;DHT22;8539;53.188;8.696;2023-05-16T09:10:39;14.40;99.90
16846;DHT22;8539;53.188;8.696;2023-05-16T09:13:05;14.60;99.90
16846;DHT22;8539;53.188;8.696;2023-05-16T09:15:32;14.80;99.90
16846;DHT22;8539;53.188;8.696;2023-05-16T09:18:01;15.10;99.90
16846;DHT22;8539;53.188;8.696;2023-05-16T09:20:27;15.10;99.90
16846;DHT22;8539;53.188;8.696;2023-05-16T09:22:55;15.10;99.90
16846;DHT22;8539;53.188;8.696;2023-05-16T09:25:27;15.00;99.90
16846;DHT22;8539;53.188;8.696;2023-05-16T09:27:54;14.90;99.90
16846;DHT22;8539;53.188;8.696;2023-05-16T09:30:28;14.60;99.90
16846;DHT22;8539;53.188;8.696;2023-05-16T09:32:55;14.40;99.90
16846;DHT22;8539;53.188;8.696;2023-05-16T09:35:22;14.30;99.90
16846;DHT22;8539;53.188;8.696;2023-05-16T09:37:49;14.20;99.90
16846;DHT22;8539;53.188;8.696;2023-05-16T09:40:21;14.00;99.90
16846;DHT22;8539;53.188;8.696;2023-05-16T09:43:00;14.00;99.90
16846;DHT22;8539;53.188;8.696;2023-05-16T09:45:30;14.00;99.90
16846;DHT22;8539;53.188;8.696;2023-05-16T09:48:07;14.00;99.90
16846;DHT22;8539;53.188;8.696;2023-05-16T09:50:35;13.60;99.90
16846;DHT22;8539;53.188;8.696;2023-05-16T09:53:02;13.20;99.90
16846;DHT22;8539;53.188;8.696;2023-05-16T09:55:30;12.80;99.90
16846;DHT22;8539;53.188;8.696;2023-05-16T09:57:56;12.30;99.90
16846;DHT22;8539;53.188;8.696;2023-05-16T10:00:31;12.10;99.90
16846;DHT22;8539;53.188;8.696;2023-05-16T10:02:59;12.20;99.90
16846;DHT22;8539;53.188;8.696;2023-05-16T10:05:26;12.50;99.90
16846;DHT22;8539;53.188;8.696;2023-05-16T10:07:54;12.80;99.90
16846;DHT22;8539;53.188;8.696;2023-05-16T10:10:22;12.80;99.90
16846;DHT22;8539;53.188;8.696;2023-05-16T10:12:50;12.60;99.90
16846;DHT22;8539;53.188;8.696;2023-05-16T10:15:16;12.40;99.90
16846;DHT22;8539;53.188;8.696;2023-05-16T10:17:44;12.20;99.90
16846;DHT22;8539;53.188;8.696;2023-05-16T10:20:13;12.00;99.90
16846;DHT22;8539;53.188;8.696;2023-05-16T10:22:42;12.00;99.90
16846;DHT22;8539;53.188;8.696;2023-05-16T10:27:37;12.40;99.90
16846;DHT22;8539;53.188;8.696;2023-05-16T10:30:05;12.80;99.90
16846;DHT22;8539;53.188;8.696;2023-05-16T10:32:33;13.20;99.90
16846;DHT22;8539;53.188;8.696;2023-05-16T10:34:59;13.60;99.90
16846;DHT22;8539;53.188;8.696;2023-05-16T10:37:31;13.70;99.90
16846;DHT22;8539;53.188;8.696;2023-05-16T10:40:02;13.50;99.90
16846;DHT22;8539;53.188;8.696;2023-05-16T10:42:33;13.20;99.90
16846;DHT22;8539;53.188;8.696;2023-05-16T10:45:18;12.90;99.90
16846;DHT22;8539;53.188;8.696;2023-05-16T10:47:55;12.70;99.90
16846;DHT22;8539;53.188;8.696;2023-05-16T10:50:42;12.50;99.90
16846;DHT22;8539;53.188;8.696;2023-05-16T10:53:13;12.70;99.90
16846;DHT22;8539;53.188;8.696;2023-05-16T11:01:32;13.40;99.90
16846;DHT22;8539;53.188;8.696;2023-05-16T11:04:41;13.60;99.90
16846;DHT22;8539;53.188;8.696;2023-05-16T11:06:52;13.80;99.90
16846;DHT22;8539;53.188;8.696;2023-05-16T11:09:23;14.20;99.90
16846;DHT22;8539;53.188;8.696;2023-05-16T11:14:33;14.70;99.90
16846;DHT22;8539;53.188;8.696;2023-05-16T11:17:21;14.70;99.90
16846;DHT22;8539;53.188;8.696;2023-05-16T11:19:57;14.60;99.90
16846;DHT22;8539;53.188;8.696;2023-05-16T11:22:26;14.30;99.90
16846;DHT22;8539;53.188;8.696;2023-05-16T11:25:02;14.30;99.90
16846;DHT22;8539;53.188;8.696;2023-05-16T11:27:45;14.30;99.90
16846;DHT22;8539;53.188;8.696;2023-05-16T11:30:13;14.50;99.90
16846;DHT22;8539;53.188;8.696;2023-05-16T11:32:45;14.60;99.90
16846;DHT22;8539;53.188;8.696;2023-05-16T11:35:14;14.40;99.90
16846;DHT22;8539;53.188;8.696;2023-05-16T11:37:40;14.30;99.90
16846;DHT22;8539;53.188;8.696;2023-05-16T11:40:11;14.30;99.90
16846;DHT22;8539;53.188;8.696;2023-05-16T11:42:45;14.10;99.90
16846;DHT22;8539;53.188;8.696;2023-05-16T11:45:17;14.00;99.90
16846;DHT22;8539;53.188;8.696;2023-05-16T11:47:46;13.90;99.90
16846;DHT22;8539;53.188;8.696;2023-05-16T11:50:17;13.70;99.90
16846;DHT22;8539;53.188;8.696;2023-05-16T11:52:52;13.40;99.90
16846;DHT22;8539;53.188;8.696;2023-05-16T11:55:22;13.00;99.90
16846;DHT22;8539;53.188;8.696;2023-05-16T11:57:53;12.80;99.90
16846;DHT22;8539;53.188;8.696;2023-05-16T12:00:21;12.70;99.90
16846;DHT22;8539;53.188;8.696;2023-05-16T12:02:49;12.70;99.90
16846;DHT22;8539;53.188;8.696;2023-05-16T12:05:16;12.80;99.90
16846;DHT22;8539;53.188;8.696;2023-05-16T12:07:43;13.10;99.90
16846;DHT22;8539;53.188;8.696;2023-05-16T12:10:11;13.50;99.90
16846;DHT22;8539;53.188;8.696;2023-05-16T12:12:40;13.90;99.90
16846;DHT22;8539;53.188;8.696;2023-05-16T12:15:07;14.20;99.90
16846;DHT22;8539;53.188;8.696;2023-05-16T12:17:34;14.60;99.90
16846;DHT22;8539;53.188;8.696;2023-05-16T12:20:03;14.80;99.90
16846;DHT22;8539;53.188;8.696;2023-05-16T12:22:32;14.80;99.90
16846;DHT22;8539;53.188;8.696;2023-05-16T12:24:59;14.60;99.90
16846;DHT22;8539;53.188;8.696;2023-05-16T12:27:41;14.20;99.90
16846;DHT22;8539;53.188;8.696;2023-05-16T12:30:08;13.90;99.90
16846;DHT22;8539;53.188;8.696;2023-05-16T12:32:37;13.50;99.90
16846;DHT22;8539;53.188;8.696;2023-05-16T12:35:07;13.30;99.90
16846;DHT22;8539;53.188;8.696;2023-05-16T12:37:51;13.20;99.90
16846;DHT22;8539;53.188;8.696;2023-05-16T12:40:19;13.20;99.90
16846;DHT22;8539;53.188;8.696;2023-05-16T12:42:50;13.30;99.90
16846;DHT22;8539;53.188;8.696;2023-05-16T12:45:22;13.60;99.90
16846;DHT22;8539;53.188;8.696;2023-05-16T12:47:49;13.90;99.90
16846;DHT22;8539;53.188;8.696;2023-05-16T12:50:15;14.00;99.90
16846;DHT22;8539;53.188;8.696;2023-05-16T12:52:52;13.80;99.90
16846;DHT22;8539;53.188;8.696;2023-05-16T12:55:19;13.70;99.90
16846;DHT22;8539;53.188;8.696;2023-05-16T12:57:47;13.80;99.90
16846;DHT22;8539;53.188;8.696;2023-05-16T13:00:16;13.90;99.90
16846;DHT22;8539;53.188;8.696;2023-05-16T13:02:44;14.10;99.90
16846;DHT22;8539;53.188;8.696;2023-05-16T13:05:11;14.20;99.90
16846;DHT22;8539;53.188;8.696;2023-05-16T13:07:38;14.10;99.90
16846;DHT22;8539;53.188;8.696;2023-05-16T13:10:09;14.00;99.90
16846;DHT22;8539;53.188;8.696;2023-05-16T13:12:38;13.90;99.90
16846;DHT22;8539;53.188;8.696;2023-05-16T13:15:10;13.80;99.90
16846;DHT22;8539;53.188;8.696;2023-05-16T13:17:40;13.90;99.90
16846;DHT22;8539;53.188;8.696;2023-05-16T13:20:09;14.10;99.90
16846;DHT22;8539;53.188;8.696;2023-05-16T13:22:42;14.20;99.90
16846;DHT22;8539;53.188;8.696;2023-05-16T13:25:08;14.20;99.90
16846;DHT22;8539;53.188;8.696;2023-05-16T13:27:35;14.10;99.90
16846;DHT22;8539;53.188;8.696;2023-05-16T13:30:02;14.00;99.90
16846;DHT22;8539;53.188;8.696;2023-05-16T13:32:31;14.10;99.90
16846;DHT22;8539;53.188;8.696;2023-05-16T13:34:59;14.20;99.90
16846;DHT22;8539;53.188;8.696;2023-05-16T13:37:26;14.50;99.90
16846;DHT22;8539;53.188;8.696;2023-05-16T13:39:52;14.70;99.90
16846;DHT22;8539;53.188;8.696;2023-05-16T13:42:21;15.00;99.90
16846;DHT22;8539;53.188;8.696;2023-05-16T13:44:51;15.10;99.80
16846;DHT22;8539;53.188;8.696;2023-05-16T13:47:18;15.10;99.80
16846;DHT22;8539;53.188;8.696;2023-05-16T13:49:44;14.90;99.80
16846;DHT22;8539;53.188;8.696;2023-05-16T13:52:10;14.70;99.80
16846;DHT22;8539;53.188;8.696;2023-05-16T13:54:37;14.70;99.80
16846;DHT22;8539;53.188;8.696;2023-05-16T13:57:08;14.80;99.80
16846;DHT22;8539;53.188;8.696;2023-05-16T13:59:35;15.00;99.80
16846;DHT22;8539;53.188;8.696;2023-05-16T14:02:01;15.20;99.90
16846;DHT22;8539;53.188;8.696;2023-05-16T14:04:28;15.50;99.90
16846;DHT22;8539;53.188;8.696;2023-05-16T14:06:56;15.70;99.40
16846;DHT22;8539;53.188;8.696;2023-05-16T14:09:23;15.90;99.00
16846;DHT22;8539;53.188;8.696;2023-05-16T14:11:52;15.90;98.60
16846;DHT22;8539;53.188;8.696;2023-05-16T14:14:19;16.00;98.30
16846;DHT22;8539;53.188;8.696;2023-05-16T14:16:45;15.80;98.20
16846;DHT22;8539;53.188;8.696;2023-05-16T14:19:12;15.60;98.20
16846;DHT22;8539;53.188;8.696;2023-05-16T14:21:38;15.30;98.50
16846;DHT22;8539;53.188;8.696;2023-05-16T14:24:05;15.10;98.90
16846;DHT22;8539;53.188;8.696;2023-05-16T14:26:31;14.90;99.30
16846;DHT22;8539;53.188;8.696;2023-05-16T14:28:58;14.80;99.60
16846;DHT22;8539;53.188;8.696;2023-05-16T14:31:24;14.70;99.70
16846;DHT22;8539;53.188;8.696;2023-05-16T14:33:51;14.60;99.70
16846;DHT22;8539;53.188;8.696;2023-05-16T14:36:17;14.50;99.80
16846;DHT22;8539;53.188;8.696;2023-05-16T14:38:43;14.40;99.80
16846;DHT22;8539;53.188;8.696;2023-05-16T14:41:09;14.40;99.80
16846;DHT22;8539;53.188;8.696;2023-05-16T14:43:35;14.30;99.80
16846;DHT22;8539;53.188;8.696;2023-05-16T14:46:03;14.20;99.80
16846;DHT22;8539;53.188;8.696;2023-05-16T14:48:29;14.10;99.90
16846;DHT22;8539;53.188;8.696;2023-05-16T14:50:56;14.10;99.90
16846;DHT22;8539;53.188;8.696;2023-05-16T14:53:22;14.20;99.90
16846;DHT22;8539;53.188;8.696;2023-05-16T14:55:48;14.40;99.90
16846;DHT22;8539;53.188;8.696;2023-05-16T14:58:15;14.50;99.90
16846;DHT22;8539;53.188;8.696;2023-05-16T15:00:41;14.60;99.90
16846;DHT22;8539;53.188;8.696;2023-05-16T15:03:07;14.50;99.90
16846;DHT22;8539;53.188;8.696;2023-05-16T15:05:33;14.30;99.80
16846;DHT22;8539;53.188;8.696;2023-05-16T15:07:59;14.20;99.80
16846;DHT22;8539;53.188;8.696;2023-05-16T15:10:25;14.00;99.80
16846;DHT22;8539;53.188;8.696;2023-05-16T15:12:52;13.70;99.80
16846;DHT22;8539;53.188;8.696;2023-05-16T15:15:18;13.50;99.80
16846;DHT22;8539;53.188;8.696;2023-05-16T15:17:44;13.20;99.80
16846;DHT22;8539;53.188;8.696;2023-05-16T15:20:11;13.00;99.90
16846;DHT22;8539;53.188;8.696;2023-05-16T15:22:38;12.90;99.90
16846;DHT22;8539;53.188;8.696;2023-05-16T15:25:06;12.70;99.90
16846;DHT22;8539;53.188;8.696;2023-05-16T15:27:32;12.70;99.90
16846;DHT22;8539;53.188;8.696;2023-05-16T15:29:59;12.70;99.90
16846;DHT22;8539;53.188;8.696;2023-05-16T15:32:26;12.80;99.90
16846;DHT22;8539;53.188;8.696;2023-05-16T15:34:52;12.80;99.90
16846;DHT22;8539;53.188;8.696;2023-05-16T15:37:18;12.70;99.90
16846;DHT22;8539;53.188;8.696;2023-05-16T15:39:44;12.60;99.90
16846;DHT22;8539;53.188;8.696;2023-05-16T15:42:10;12.50;99.90
16846;DHT22;8539;53.188;8.696;2023-05-16T15:44:37;12.40;99.90
16846;DHT22;8539;53.188;8.696;2023-05-16T15:47:03;12.50;99.90
16846;DHT22;8539;53.188;8.696;2023-05-16T15:49:29;12.70;99.90
16846;DHT22;8539;53.188;8.696;2023-05-16T15:51:56;12.90;99.90
16846;DHT22;8539;53.188;8.696;2023-05-16T15:54:22;13.20;99.90
16846;DHT22;8539;53.188;8.696;2023-05-16T15:56:48;13.50;99.90
16846;DHT22;8539;53.188;8.696;2023-05-16T15:59:14;13.50;99.90
16846;DHT22;8539;53.188;8.696;2023-05-16T16:01:40;13.30;99.90
16846;DHT22;8539;53.188;8.696;2023-05-16T16:04:06;13.10;99.90
16846;DHT22;8539;53.188;8.696;2023-05-16T16:06:32;12.80;99.90
16846;DHT22;8539;53.188;8.696;2023-05-16T16:08:58;12.60;99.90
16846;DHT22;8539;53.188;8.696;2023-05-16T16:11:25;12.40;99.90
16846;DHT22;8539;53.188;8.696;2023-05-16T16:13:52;12.20;99.90
16846;DHT22;8539;53.188;8.696;2023-05-16T16:16:17;12.10;99.90
16846;DHT22;8539;53.188;8.696;2023-05-16T16:18:44;12.00;99.90